LiveATC.Net - Listen to live air traffic control over the Internet! Contact for advertising information

ICAO: KACK  IATA: ACK   Airport: Nantucket Memorial Airport
City: Nantucket   State/Province: Massachusetts
Country: United States   Continent: North America
KACK METAR Weather: KACK 040353Z AUTO 05019G30KT 10SM OVC024 13/08 A3036 RMK AO2 PK WND 05030/0349 SLP279 T01330083 TSNO $
KACK Flight Activity (FlightAware)
KACK Airport Info   (AirNav) (iFlightPlanner)
KACK VFR Sectional Chart   (iFlightPlanner) 
KACK IFR Low Chart   (iFlightPlanner) 
KACK Tower
Feed Status: UP   Listeners: 4
Listen right in your browser - requires Flash (in browser, requires Flash)
Click here to listen with your own player (launches your MP3 player)
KACK Tower Audio Archives
Nantucket Tower118.300


Unauthorized use prohibited. See Terms of Service

Find LiveATC Audio Streams

Airport/ARTCC Code

(e.g., 124.400, 128.75)
Site-wide search

Browse LiveATC Feeds
LiveATC Coverage Map
Top 50 LiveATC Feeds
Bad Weather Areas

Offer a LiveATC Feed
Press Inquiries

LiveATC on iPhone
LiveATC on Android

LiveATC Mobile
(Mobile browser)

ATC Audio Archives
Interesting Recordings

LiveATC Forums

Home Page
Make a Donation
LiveATC Bookstore

Terms of Use
Privacy Policy

ATC/Radar Sites
U.S. ARTCC Freqs
Canadian Air Freqs


FAA Airport Status
Nat'l Airspace Status
Arrival Demand Charts

Server Software By:

Please make a donation to help us keep growing!